sensor_id;sensor_type;location;lat;lon;timestamp;temperature;humidity
75648;DHT22;66269;51.466;7.260;2023-02-14T00:01:45;23.50;43.80
75648;DHT22;66269;51.466;7.260;2023-02-14T00:04:12;23.70;43.20
75648;DHT22;66269;51.466;7.260;2023-02-14T00:06:38;23.60;43.30
75648;DHT22;66269;51.466;7.260;2023-02-14T00:09:05;23.60;44.10
75648;DHT22;66269;51.466;7.260;2023-02-14T00:11:30;23.60;44.00
75648;DHT22;66269;51.466;7.260;2023-02-14T00:13:57;23.60;44.00
75648;DHT22;66269;51.466;7.260;2023-02-14T00:16:42;23.50;44.00
75648;DHT22;66269;51.466;7.260;2023-02-14T00:19:10;23.50;43.80
75648;DHT22;66269;51.466;7.260;2023-02-14T00:21:37;23.50;44.00
75648;DHT22;66269;51.466;7.260;2023-02-14T00:24:05;23.60;44.20
75648;DHT22;66269;51.466;7.260;2023-02-14T00:26:31;23.50;43.90
75648;DHT22;66269;51.466;7.260;2023-02-14T00:28:56;23.60;43.90
75648;DHT22;66269;51.466;7.260;2023-02-14T00:31:22;23.50;44.00
75648;DHT22;66269;51.466;7.260;2023-02-14T00:33:48;23.60;44.10
75648;DHT22;66269;51.466;7.260;2023-02-14T00:36:13;23.50;44.10
75648;DHT22;66269;51.466;7.260;2023-02-14T00:38:39;23.50;44.00
75648;DHT22;66269;51.466;7.260;2023-02-14T00:41:04;23.50;44.10
75648;DHT22;66269;51.466;7.260;2023-02-14T00:43:30;23.60;44.30
75648;DHT22;66269;51.466;7.260;2023-02-14T00:45:56;23.60;44.00
75648;DHT22;66269;51.466;7.260;2023-02-14T00:48:22;23.50;44.00
75648;DHT22;66269;51.466;7.260;2023-02-14T00:50:47;23.50;43.80
75648;DHT22;66269;51.466;7.260;2023-02-14T00:53:13;23.60;43.80
75648;DHT22;66269;51.466;7.260;2023-02-14T00:55:39;23.60;44.00
75648;DHT22;66269;51.466;7.260;2023-02-14T00:58:04;23.50;43.90
75648;DHT22;66269;51.466;7.260;2023-02-14T01:00:30;23.50;44.00
75648;DHT22;66269;51.466;7.260;2023-02-14T01:05:23;23.50;44.20
75648;DHT22;66269;51.466;7.260;2023-02-14T01:07:49;23.50;43.90
75648;DHT22;66269;51.466;7.260;2023-02-14T01:10:15;23.50;44.00
75648;DHT22;66269;51.466;7.260;2023-02-14T01:12:40;23.50;44.20
75648;DHT22;66269;51.466;7.260;2023-02-14T01:15:06;23.50;44.00
75648;DHT22;66269;51.466;7.260;2023-02-14T01:17:31;23.50;44.00
75648;DHT22;66269;51.466;7.260;2023-02-14T01:19:57;23.60;43.80
75648;DHT22;66269;51.466;7.260;2023-02-14T01:22:22;23.50;44.00
75648;DHT22;66269;51.466;7.260;2023-02-14T01:24:48;23.50;44.10
75648;DHT22;66269;51.466;7.260;2023-02-14T01:27:14;23.50;44.00
75648;DHT22;66269;51.466;7.260;2023-02-14T01:29:39;23.40;44.00
75648;DHT22;66269;51.466;7.260;2023-02-14T01:32:05;23.50;43.90
75648;DHT22;66269;51.466;7.260;2023-02-14T01:34:30;23.50;44.00
75648;DHT22;66269;51.466;7.260;2023-02-14T01:36:56;23.50;43.80
75648;DHT22;66269;51.466;7.260;2023-02-14T01:39:21;23.50;44.00
75648;DHT22;66269;51.466;7.260;2023-02-14T01:41:47;23.50;44.20
75648;DHT22;66269;51.466;7.260;2023-02-14T01:46:39;23.50;44.00
75648;DHT22;66269;51.466;7.260;2023-02-14T01:51:46;23.50;44.20
75648;DHT22;66269;51.466;7.260;2023-02-14T01:54:12;23.60;44.00
75648;DHT22;66269;51.466;7.260;2023-02-14T01:56:43;23.50;43.70
75648;DHT22;66269;51.466;7.260;2023-02-14T01:59:12;23.40;43.80
75648;DHT22;66269;51.466;7.260;2023-02-14T02:01:40;23.40;44.00
75648;DHT22;66269;51.466;7.260;2023-02-14T02:04:10;23.50;43.80
75648;DHT22;66269;51.466;7.260;2023-02-14T02:06:41;23.40;44.00
75648;DHT22;66269;51.466;7.260;2023-02-14T02:11:43;23.50;43.70
75648;DHT22;66269;51.466;7.260;2023-02-14T02:14:14;23.40;43.90
75648;DHT22;66269;51.466;7.260;2023-02-14T02:22:11;23.50;43.80
75648;DHT22;66269;51.466;7.260;2023-02-14T02:24:53;23.40;44.10
75648;DHT22;66269;51.466;7.260;2023-02-14T02:33:42;23.50;44.00
75648;DHT22;66269;51.466;7.260;2023-02-14T02:36:21;23.40;43.70
75648;DHT22;66269;51.466;7.260;2023-02-14T02:39:09;23.40;44.00
75648;DHT22;66269;51.466;7.260;2023-02-14T02:44:18;23.40;43.80
75648;DHT22;66269;51.466;7.260;2023-02-14T02:47:01;23.40;43.90
75648;DHT22;66269;51.466;7.260;2023-02-14T02:52:41;23.40;43.70
75648;DHT22;66269;51.466;7.260;2023-02-14T02:55:39;23.40;44.10
75648;DHT22;66269;51.466;7.260;2023-02-14T02:58:29;23.30;44.10
75648;DHT22;66269;51.466;7.260;2023-02-14T03:00:58;23.40;44.10
75648;DHT22;66269;51.466;7.260;2023-02-14T03:03:27;23.30;44.00
75648;DHT22;66269;51.466;7.260;2023-02-14T03:06:13;23.40;43.90
75648;DHT22;66269;51.466;7.260;2023-02-14T03:08:38;23.40;43.70
75648;DHT22;66269;51.466;7.260;2023-02-14T03:11:04;23.40;44.00
75648;DHT22;66269;51.466;7.260;2023-02-14T03:13:41;23.30;43.90
75648;DHT22;66269;51.466;7.260;2023-02-14T03:16:31;23.30;43.90
75648;DHT22;66269;51.466;7.260;2023-02-14T03:20:07;23.40;43.90
75648;DHT22;66269;51.466;7.260;2023-02-14T03:22:11;23.40;43.90
75648;DHT22;66269;51.466;7.260;2023-02-14T03:24:56;23.40;43.80
75648;DHT22;66269;51.466;7.260;2023-02-14T03:27:30;23.40;43.90
75648;DHT22;66269;51.466;7.260;2023-02-14T03:32:44;23.40;43.90
75648;DHT22;66269;51.466;7.260;2023-02-14T03:35:17;23.30;44.10
75648;DHT22;66269;51.466;7.260;2023-02-14T03:40:46;23.30;43.70
75648;DHT22;66269;51.466;7.260;2023-02-14T03:43:28;23.30;43.90
75648;DHT22;66269;51.466;7.260;2023-02-14T03:48:31;23.30;43.80
75648;DHT22;66269;51.466;7.260;2023-02-14T03:50:59;23.40;43.60
75648;DHT22;66269;51.466;7.260;2023-02-14T03:53:27;23.30;43.90
75648;DHT22;66269;51.466;7.260;2023-02-14T03:56:06;23.30;43.70
75648;DHT22;66269;51.466;7.260;2023-02-14T03:58:38;23.40;44.00
75648;DHT22;66269;51.466;7.260;2023-02-14T04:01:15;23.30;43.60
75648;DHT22;66269;51.466;7.260;2023-02-14T04:03:42;23.30;43.80
75648;DHT22;66269;51.466;7.260;2023-02-14T04:06:08;23.30;43.60
75648;DHT22;66269;51.466;7.260;2023-02-14T04:08:34;23.30;44.10
75648;DHT22;66269;51.466;7.260;2023-02-14T04:11:00;23.30;43.80
75648;DHT22;66269;51.466;7.260;2023-02-14T04:13:27;23.30;43.80
75648;DHT22;66269;51.466;7.260;2023-02-14T04:15:53;23.30;44.00
75648;DHT22;66269;51.466;7.260;2023-02-14T04:18:18;23.30;43.80
75648;DHT22;66269;51.466;7.260;2023-02-14T04:21:03;23.30;43.90
75648;DHT22;66269;51.466;7.260;2023-02-14T04:23:28;23.40;43.70
75648;DHT22;66269;51.466;7.260;2023-02-14T04:25:54;23.30;43.70
75648;DHT22;66269;51.466;7.260;2023-02-14T04:28:19;23.30;43.70
75648;DHT22;66269;51.466;7.260;2023-02-14T04:30:45;23.20;44.00
75648;DHT22;66269;51.466;7.260;2023-02-14T04:33:10;23.30;43.60
75648;DHT22;66269;51.466;7.260;2023-02-14T04:35:36;23.30;43.80
75648;DHT22;66269;51.466;7.260;2023-02-14T04:38:03;23.20;44.00
75648;DHT22;66269;51.466;7.260;2023-02-14T04:40:29;23.30;43.90
75648;DHT22;66269;51.466;7.260;2023-02-14T04:42:55;23.30;43.80
75648;DHT22;66269;51.466;7.260;2023-02-14T04:45:20;23.20;43.40
75648;DHT22;66269;51.466;7.260;2023-02-14T04:47:46;23.30;43.80
75648;DHT22;66269;51.466;7.260;2023-02-14T04:50:12;23.30;43.70
75648;DHT22;66269;51.466;7.260;2023-02-14T04:52:38;23.30;43.70
75648;DHT22;66269;51.466;7.260;2023-02-14T04:55:04;23.30;44.00
75648;DHT22;66269;51.466;7.260;2023-02-14T04:57:30;23.30;43.90
75648;DHT22;66269;51.466;7.260;2023-02-14T04:59:56;23.30;43.90
75648;DHT22;66269;51.466;7.260;2023-02-14T05:02:21;23.20;43.70
75648;DHT22;66269;51.466;7.260;2023-02-14T05:04:47;23.20;43.80
75648;DHT22;66269;51.466;7.260;2023-02-14T05:07:12;23.30;43.90
75648;DHT22;66269;51.466;7.260;2023-02-14T05:09:38;23.30;43.80
75648;DHT22;66269;51.466;7.260;2023-02-14T05:12:03;23.30;43.80
75648;DHT22;66269;51.466;7.260;2023-02-14T05:14:29;23.30;43.80
75648;DHT22;66269;51.466;7.260;2023-02-14T05:16:55;23.30;43.80
75648;DHT22;66269;51.466;7.260;2023-02-14T05:19:20;23.30;43.70
75648;DHT22;66269;51.466;7.260;2023-02-14T05:21:46;23.30;43.80
75648;DHT22;66269;51.466;7.260;2023-02-14T05:24:12;23.30;43.50
75648;DHT22;66269;51.466;7.260;2023-02-14T05:26:37;23.30;43.80
75648;DHT22;66269;51.466;7.260;2023-02-14T05:29:03;23.20;43.80
75648;DHT22;66269;51.466;7.260;2023-02-14T05:31:28;23.20;43.60
75648;DHT22;66269;51.466;7.260;2023-02-14T05:33:54;23.20;43.70
75648;DHT22;66269;51.466;7.260;2023-02-14T05:36:20;23.30;43.90
75648;DHT22;66269;51.466;7.260;2023-02-14T05:38:46;23.20;44.00
75648;DHT22;66269;51.466;7.260;2023-02-14T05:41:11;23.20;43.60
75648;DHT22;66269;51.466;7.260;2023-02-14T05:43:37;23.20;43.60
75648;DHT22;66269;51.466;7.260;2023-02-14T05:46:02;23.20;43.80
75648;DHT22;66269;51.466;7.260;2023-02-14T05:48:28;23.30;44.00
75648;DHT22;66269;51.466;7.260;2023-02-14T05:50:53;23.20;43.80
75648;DHT22;66269;51.466;7.260;2023-02-14T05:53:19;23.20;43.80
75648;DHT22;66269;51.466;7.260;2023-02-14T05:55:45;23.20;43.90
75648;DHT22;66269;51.466;7.260;2023-02-14T05:58:11;23.30;43.80
75648;DHT22;66269;51.466;7.260;2023-02-14T06:00:37;23.20;43.60
75648;DHT22;66269;51.466;7.260;2023-02-14T06:03:02;23.20;43.60
75648;DHT22;66269;51.466;7.260;2023-02-14T06:05:28;23.20;43.70
75648;DHT22;66269;51.466;7.260;2023-02-14T06:07:54;23.20;43.80
75648;DHT22;66269;51.466;7.260;2023-02-14T06:10:21;23.20;43.70
75648;DHT22;66269;51.466;7.260;2023-02-14T06:12:53;23.10;43.60
75648;DHT22;66269;51.466;7.260;2023-02-14T06:15:19;23.20;43.80
75648;DHT22;66269;51.466;7.260;2023-02-14T06:17:50;23.10;43.70
75648;DHT22;66269;51.466;7.260;2023-02-14T06:20:16;23.20;43.70
75648;DHT22;66269;51.466;7.260;2023-02-14T06:22:41;23.20;43.60
75648;DHT22;66269;51.466;7.260;2023-02-14T06:25:07;23.10;43.70
75648;DHT22;66269;51.466;7.260;2023-02-14T06:27:32;23.20;43.50
75648;DHT22;66269;51.466;7.260;2023-02-14T06:29:58;23.20;43.60
75648;DHT22;66269;51.466;7.260;2023-02-14T06:32:24;23.10;43.50
75648;DHT22;66269;51.466;7.260;2023-02-14T06:34:49;23.10;43.70
75648;DHT22;66269;51.466;7.260;2023-02-14T06:37:15;23.10;43.50
75648;DHT22;66269;51.466;7.260;2023-02-14T06:39:40;23.20;43.60
75648;DHT22;66269;51.466;7.260;2023-02-14T06:42:06;23.20;43.80
75648;DHT22;66269;51.466;7.260;2023-02-14T06:44:32;23.10;43.90
75648;DHT22;66269;51.466;7.260;2023-02-14T06:46:57;23.20;43.90
75648;DHT22;66269;51.466;7.260;2023-02-14T06:49:23;23.20;43.70
75648;DHT22;66269;51.466;7.260;2023-02-14T06:51:49;23.20;43.60
75648;DHT22;66269;51.466;7.260;2023-02-14T06:54:14;23.20;43.60
75648;DHT22;66269;51.466;7.260;2023-02-14T06:56:40;23.10;43.80
75648;DHT22;66269;51.466;7.260;2023-02-14T06:59:06;23.20;43.50
75648;DHT22;66269;51.466;7.260;2023-02-14T07:01:32;23.30;43.60
75648;DHT22;66269;51.466;7.260;2023-02-14T07:03:57;23.50;43.50
75648;DHT22;66269;51.466;7.260;2023-02-14T07:06:23;23.70;42.40
75648;DHT22;66269;51.466;7.260;2023-02-14T07:08:48;23.70;42.30
75648;DHT22;66269;51.466;7.260;2023-02-14T07:11:14;23.70;42.20
75648;DHT22;66269;51.466;7.260;2023-02-14T07:13:40;23.70;42.20
75648;DHT22;66269;51.466;7.260;2023-02-14T07:16:05;23.90;42.00
75648;DHT22;66269;51.466;7.260;2023-02-14T07:18:31;24.20;41.80
75648;DHT22;66269;51.466;7.260;2023-02-14T07:20:56;24.40;41.60
75648;DHT22;66269;51.466;7.260;2023-02-14T07:23:22;24.30;41.70
75648;DHT22;66269;51.466;7.260;2023-02-14T07:25:47;24.30;41.60
75648;DHT22;66269;51.466;7.260;2023-02-14T07:28:13;24.10;41.80
75648;DHT22;66269;51.466;7.260;2023-02-14T07:30:38;23.90;41.80
75648;DHT22;66269;51.466;7.260;2023-02-14T07:33:04;23.90;42.20
75648;DHT22;66269;51.466;7.260;2023-02-14T07:35:29;23.90;42.30
75648;DHT22;66269;51.466;7.260;2023-02-14T07:37:55;23.90;42.10
75648;DHT22;66269;51.466;7.260;2023-02-14T07:40:20;23.90;42.30
75648;DHT22;66269;51.466;7.260;2023-02-14T07:42:53;23.80;43.60
75648;DHT22;66269;51.466;7.260;2023-02-14T07:45:19;23.80;44.30
75648;DHT22;66269;51.466;7.260;2023-02-14T07:47:47;23.70;43.40
75648;DHT22;66269;51.466;7.260;2023-02-14T07:50:13;23.70;42.80
75648;DHT22;66269;51.466;7.260;2023-02-14T07:52:38;23.60;42.80
75648;DHT22;66269;51.466;7.260;2023-02-14T07:55:04;23.60;43.00
75648;DHT22;66269;51.466;7.260;2023-02-14T07:57:29;23.60;42.90
75648;DHT22;66269;51.466;7.260;2023-02-14T07:59:55;23.70;42.80
75648;DHT22;66269;51.466;7.260;2023-02-14T08:02:20;23.70;42.90
75648;DHT22;66269;51.466;7.260;2023-02-14T08:04:46;23.60;42.80
75648;DHT22;66269;51.466;7.260;2023-02-14T08:07:11;23.70;42.90
75648;DHT22;66269;51.466;7.260;2023-02-14T08:09:37;23.70;42.90
75648;DHT22;66269;51.466;7.260;2023-02-14T08:12:02;23.80;42.70
75648;DHT22;66269;51.466;7.260;2023-02-14T08:14:46;23.70;42.70
75648;DHT22;66269;51.466;7.260;2023-02-14T08:17:12;23.70;42.50
75648;DHT22;66269;51.466;7.260;2023-02-14T08:19:38;23.90;42.60
75648;DHT22;66269;51.466;7.260;2023-02-14T08:22:04;23.90;42.70
75648;DHT22;66269;51.466;7.260;2023-02-14T08:24:30;23.90;42.20
75648;DHT22;66269;51.466;7.260;2023-02-14T08:26:55;24.10;42.30
75648;DHT22;66269;51.466;7.260;2023-02-14T08:29:21;24.10;42.20
75648;DHT22;66269;51.466;7.260;2023-02-14T08:31:46;24.10;42.70
75648;DHT22;66269;51.466;7.260;2023-02-14T08:34:14;24.00;42.50
75648;DHT22;66269;51.466;7.260;2023-02-14T08:36:40;24.00;42.50
75648;DHT22;66269;51.466;7.260;2023-02-14T08:39:06;24.10;42.60
75648;DHT22;66269;51.466;7.260;2023-02-14T08:41:32;24.10;42.60
75648;DHT22;66269;51.466;7.260;2023-02-14T08:43:58;24.20;42.20
75648;DHT22;66269;51.466;7.260;2023-02-14T08:46:23;24.30;42.30
75648;DHT22;66269;51.466;7.260;2023-02-14T08:48:49;24.20;42.10
75648;DHT22;66269;51.466;7.260;2023-02-14T08:51:16;24.10;42.10
75648;DHT22;66269;51.466;7.260;2023-02-14T08:53:42;24.20;42.20
75648;DHT22;66269;51.466;7.260;2023-02-14T08:56:11;24.30;42.10
75648;DHT22;66269;51.466;7.260;2023-02-14T08:58:38;24.30;42.30
75648;DHT22;66269;51.466;7.260;2023-02-14T09:01:12;24.20;42.10
75648;DHT22;66269;51.466;7.260;2023-02-14T09:03:38;24.20;42.00
75648;DHT22;66269;51.466;7.260;2023-02-14T09:06:09;24.20;41.90
75648;DHT22;66269;51.466;7.260;2023-02-14T09:08:36;24.30;42.10
75648;DHT22;66269;51.466;7.260;2023-02-14T09:11:16;24.20;41.80
75648;DHT22;66269;51.466;7.260;2023-02-14T09:13:43;24.20;42.10
75648;DHT22;66269;51.466;7.260;2023-02-14T09:16:11;24.30;42.10
75648;DHT22;66269;51.466;7.260;2023-02-14T09:18:37;24.40;42.10
75648;DHT22;66269;51.466;7.260;2023-02-14T09:21:07;24.40;42.10
75648;DHT22;66269;51.466;7.260;2023-02-14T09:23:34;24.50;42.10
75648;DHT22;66269;51.466;7.260;2023-02-14T09:26:04;24.40;41.70
75648;DHT22;66269;51.466;7.260;2023-02-14T09:28:30;24.50;41.90
75648;DHT22;66269;51.466;7.260;2023-02-14T09:30:56;24.40;42.00
75648;DHT22;66269;51.466;7.260;2023-02-14T09:33:22;24.40;42.00
75648;DHT22;66269;51.466;7.260;2023-02-14T09:35:48;24.40;42.10
75648;DHT22;66269;51.466;7.260;2023-02-14T09:38:14;24.50;42.00
75648;DHT22;66269;51.466;7.260;2023-02-14T09:40:44;24.50;41.80
75648;DHT22;66269;51.466;7.260;2023-02-14T09:43:47;24.50;41.90
75648;DHT22;66269;51.466;7.260;2023-02-14T09:46:17;24.50;42.10
75648;DHT22;66269;51.466;7.260;2023-02-14T09:48:46;24.50;42.10
75648;DHT22;66269;51.466;7.260;2023-02-14T09:51:21;24.50;42.00
75648;DHT22;66269;51.466;7.260;2023-02-14T09:56:47;24.60;42.30
75648;DHT22;66269;51.466;7.260;2023-02-14T09:59:35;24.60;42.10
75648;DHT22;66269;51.466;7.260;2023-02-14T10:05:21;24.60;42.30
75648;DHT22;66269;51.466;7.260;2023-02-14T10:10:41;24.60;42.30
75648;DHT22;66269;51.466;7.260;2023-02-14T10:13:28;24.60;42.30
75648;DHT22;66269;51.466;7.260;2023-02-14T10:16:15;24.60;42.30
75648;DHT22;66269;51.466;7.260;2023-02-14T10:18:51;24.60;42.40
75648;DHT22;66269;51.466;7.260;2023-02-14T10:21:26;24.60;42.30
75648;DHT22;66269;51.466;7.260;2023-02-14T10:23:59;24.60;42.20
75648;DHT22;66269;51.466;7.260;2023-02-14T10:26:34;24.70;42.20
75648;DHT22;66269;51.466;7.260;2023-02-14T10:29:02;24.60;42.40
75648;DHT22;66269;51.466;7.260;2023-02-14T10:32:20;24.60;42.20
75648;DHT22;66269;51.466;7.260;2023-02-14T10:37:47;24.60;42.40
75648;DHT22;66269;51.466;7.260;2023-02-14T10:43:14;24.60;42.50
75648;DHT22;66269;51.466;7.260;2023-02-14T10:46:06;24.70;42.40
75648;DHT22;66269;51.466;7.260;2023-02-14T10:48:46;24.60;42.50
75648;DHT22;66269;51.466;7.260;2023-02-14T10:51:26;24.60;42.50
75648;DHT22;66269;51.466;7.260;2023-02-14T10:57:04;24.70;43.00
75648;DHT22;66269;51.466;7.260;2023-02-14T11:02:12;24.70;42.70
75648;DHT22;66269;51.466;7.260;2023-02-14T11:04:39;24.70;42.50
75648;DHT22;66269;51.466;7.260;2023-02-14T11:07:15;24.80;42.90
75648;DHT22;66269;51.466;7.260;2023-02-14T11:09:40;24.80;42.90
75648;DHT22;66269;51.466;7.260;2023-02-14T11:12:07;24.70;43.00
75648;DHT22;66269;51.466;7.260;2023-02-14T11:14:35;24.80;43.00
75648;DHT22;66269;51.466;7.260;2023-02-14T11:17:29;24.80;42.80
75648;DHT22;66269;51.466;7.260;2023-02-14T11:22:48;24.80;42.90
75648;DHT22;66269;51.466;7.260;2023-02-14T11:25:20;24.90;42.80
75648;DHT22;66269;51.466;7.260;2023-02-14T11:27:47;24.80;42.90
75648;DHT22;66269;51.466;7.260;2023-02-14T11:30:32;24.80;43.10
75648;DHT22;66269;51.466;7.260;2023-02-14T11:32:58;24.90;42.70
75648;DHT22;66269;51.466;7.260;2023-02-14T11:35:27;24.90;42.80
75648;DHT22;66269;51.466;7.260;2023-02-14T11:38:00;24.90;43.00
75648;DHT22;66269;51.466;7.260;2023-02-14T11:43:01;25.00;43.20
75648;DHT22;66269;51.466;7.260;2023-02-14T11:45:44;24.90;43.00
75648;DHT22;66269;51.466;7.260;2023-02-14T11:48:20;24.90;43.00
75648;DHT22;66269;51.466;7.260;2023-02-14T11:51:13;25.00;43.20
75648;DHT22;66269;51.466;7.260;2023-02-14T11:53:48;25.00;43.10
75648;DHT22;66269;51.466;7.260;2023-02-14T11:56:16;24.90;43.00
75648;DHT22;66269;51.466;7.260;2023-02-14T11:58:58;25.00;43.00
75648;DHT22;66269;51.466;7.260;2023-02-14T12:01:33;25.00;43.10
75648;DHT22;66269;51.466;7.260;2023-02-14T12:04:30;25.00;43.20
75648;DHT22;66269;51.466;7.260;2023-02-14T12:07:13;25.00;43.00
75648;DHT22;66269;51.466;7.260;2023-02-14T12:09:39;25.00;43.20
75648;DHT22;66269;51.466;7.260;2023-02-14T12:12:21;25.00;43.10
75648;DHT22;66269;51.466;7.260;2023-02-14T12:14:48;25.00;43.10
75648;DHT22;66269;51.466;7.260;2023-02-14T12:17:22;25.00;43.10
75648;DHT22;66269;51.466;7.260;2023-02-14T12:20:13;25.00;43.00
75648;DHT22;66269;51.466;7.260;2023-02-14T12:22:45;25.00;43.20
75648;DHT22;66269;51.466;7.260;2023-02-14T12:25:26;25.00;43.20
75648;DHT22;66269;51.466;7.260;2023-02-14T12:28:11;25.00;43.30
75648;DHT22;66269;51.466;7.260;2023-02-14T12:30:37;24.90;43.10
75648;DHT22;66269;51.466;7.260;2023-02-14T12:33:15;25.00;42.90
75648;DHT22;66269;51.466;7.260;2023-02-14T12:35:53;24.90;42.80
75648;DHT22;66269;51.466;7.260;2023-02-14T12:43:44;24.90;43.20
75648;DHT22;66269;51.466;7.260;2023-02-14T12:49:22;24.90;43.10
75648;DHT22;66269;51.466;7.260;2023-02-14T12:54:42;25.00;43.10
75648;DHT22;66269;51.466;7.260;2023-02-14T13:00:03;24.90;43.00
75648;DHT22;66269;51.466;7.260;2023-02-14T13:02:47;24.90;43.00
75648;DHT22;66269;51.466;7.260;2023-02-14T13:05:33;24.90;42.90
75648;DHT22;66269;51.466;7.260;2023-02-14T13:10:59;24.90;43.30
75648;DHT22;66269;51.466;7.260;2023-02-14T13:16:24;25.00;43.10
75648;DHT22;66269;51.466;7.260;2023-02-14T13:21:41;24.90;43.20
75648;DHT22;66269;51.466;7.260;2023-02-14T13:24:17;25.10;43.20
75648;DHT22;66269;51.466;7.260;2023-02-14T13:26:48;25.10;43.20
75648;DHT22;66269;51.466;7.260;2023-02-14T13:29:20;25.10;43.20
75648;DHT22;66269;51.466;7.260;2023-02-14T13:31:49;25.10;43.20
75648;DHT22;66269;51.466;7.260;2023-02-14T13:34:26;25.20;43.30
75648;DHT22;66269;51.466;7.260;2023-02-14T13:36:54;25.20;43.10
75648;DHT22;66269;51.466;7.260;2023-02-14T13:41:53;25.20;43.40
75648;DHT22;66269;51.466;7.260;2023-02-14T13:47:05;25.30;43.30
75648;DHT22;66269;51.466;7.260;2023-02-14T13:49:32;25.30;43.30
75648;DHT22;66269;51.466;7.260;2023-02-14T13:52:03;25.40;43.30
75648;DHT22;66269;51.466;7.260;2023-02-14T13:56:58;25.40;43.30
75648;DHT22;66269;51.466;7.260;2023-02-14T13:59:33;25.40;43.30
75648;DHT22;66269;51.466;7.260;2023-02-14T14:02:29;25.50;43.20
75648;DHT22;66269;51.466;7.260;2023-02-14T14:04:55;25.40;43.30
75648;DHT22;66269;51.466;7.260;2023-02-14T14:07:25;25.40;43.30
75648;DHT22;66269;51.466;7.260;2023-02-14T14:09:59;25.40;43.20
75648;DHT22;66269;51.466;7.260;2023-02-14T14:17:40;25.60;43.40
75648;DHT22;66269;51.466;7.260;2023-02-14T14:22:50;25.60;43.30
75648;DHT22;66269;51.466;7.260;2023-02-14T14:25:38;25.60;43.10
75648;DHT22;66269;51.466;7.260;2023-02-14T14:28:12;25.50;43.40
75648;DHT22;66269;51.466;7.260;2023-02-14T14:30:43;25.60;43.10
75648;DHT22;66269;51.466;7.260;2023-02-14T14:33:13;25.60;43.10
75648;DHT22;66269;51.466;7.260;2023-02-14T14:35:38;25.60;43.00
75648;DHT22;66269;51.466;7.260;2023-02-14T14:38:04;25.70;43.00
75648;DHT22;66269;51.466;7.260;2023-02-14T14:40:32;25.70;42.80
75648;DHT22;66269;51.466;7.260;2023-02-14T14:43:10;25.70;43.10
75648;DHT22;66269;51.466;7.260;2023-02-14T14:45:36;25.70;43.10
75648;DHT22;66269;51.466;7.260;2023-02-14T14:48:08;25.70;43.00
75648;DHT22;66269;51.466;7.260;2023-02-14T14:50:35;25.70;42.90
75648;DHT22;66269;51.466;7.260;2023-02-14T14:53:15;25.80;43.00
75648;DHT22;66269;51.466;7.260;2023-02-14T14:55:45;25.80;42.60
75648;DHT22;66269;51.466;7.260;2023-02-14T15:00:55;25.80;42.90
75648;DHT22;66269;51.466;7.260;2023-02-14T15:03:23;25.80;42.60
75648;DHT22;66269;51.466;7.260;2023-02-14T15:05:50;25.90;42.90
75648;DHT22;66269;51.466;7.260;2023-02-14T15:11:30;26.00;42.70
75648;DHT22;66269;51.466;7.260;2023-02-14T15:14:17;25.90;42.70
75648;DHT22;66269;51.466;7.260;2023-02-14T15:16:47;26.00;42.80
75648;DHT22;66269;51.466;7.260;2023-02-14T15:19:21;26.00;42.80
75648;DHT22;66269;51.466;7.260;2023-02-14T15:21:48;26.10;42.80
75648;DHT22;66269;51.466;7.260;2023-02-14T15:24:16;26.00;42.50
75648;DHT22;66269;51.466;7.260;2023-02-14T15:26:45;26.00;42.50
75648;DHT22;66269;51.466;7.260;2023-02-14T15:29:23;26.00;42.60
75648;DHT22;66269;51.466;7.260;2023-02-14T15:31:50;26.10;42.70
75648;DHT22;66269;51.466;7.260;2023-02-14T15:34:19;26.00;42.30
75648;DHT22;66269;51.466;7.260;2023-02-14T15:36:48;26.00;42.60
75648;DHT22;66269;51.466;7.260;2023-02-14T15:39:17;26.00;42.40
75648;DHT22;66269;51.466;7.260;2023-02-14T15:41:43;26.00;42.50
75648;DHT22;66269;51.466;7.260;2023-02-14T15:44:18;26.00;42.70
75648;DHT22;66269;51.466;7.260;2023-02-14T15:46:44;25.90;42.50
75648;DHT22;66269;51.466;7.260;2023-02-14T15:49:13;26.00;42.80
75648;DHT22;66269;51.466;7.260;2023-02-14T15:51:40;25.90;42.60
75648;DHT22;66269;51.466;7.260;2023-02-14T15:56:55;25.90;42.80
75648;DHT22;66269;51.466;7.260;2023-02-14T15:59:24;25.80;42.70
75648;DHT22;66269;51.466;7.260;2023-02-14T16:04:24;25.80;42.70
75648;DHT22;66269;51.466;7.260;2023-02-14T16:07:23;25.80;42.70
75648;DHT22;66269;51.466;7.260;2023-02-14T16:09:50;25.70;42.60
75648;DHT22;66269;51.466;7.260;2023-02-14T16:12:35;25.70;42.80
75648;DHT22;66269;51.466;7.260;2023-02-14T16:17:35;25.70;42.80
75648;DHT22;66269;51.466;7.260;2023-02-14T16:23:16;25.70;43.00
75648;DHT22;66269;51.466;7.260;2023-02-14T16:25:42;25.70;42.90
75648;DHT22;66269;51.466;7.260;2023-02-14T16:28:08;25.70;42.60
75648;DHT22;66269;51.466;7.260;2023-02-14T16:30:35;25.70;42.80
75648;DHT22;66269;51.466;7.260;2023-02-14T16:33:01;25.70;42.80
75648;DHT22;66269;51.466;7.260;2023-02-14T16:35:26;25.60;42.80
75648;DHT22;66269;51.466;7.260;2023-02-14T16:37:52;25.50;42.90
75648;DHT22;66269;51.466;7.260;2023-02-14T16:40:20;25.60;42.70
75648;DHT22;66269;51.466;7.260;2023-02-14T16:42:46;25.60;42.80
75648;DHT22;66269;51.466;7.260;2023-02-14T16:45:16;25.50;42.90
75648;DHT22;66269;51.466;7.260;2023-02-14T16:47:44;25.50;42.90
75648;DHT22;66269;51.466;7.260;2023-02-14T16:50:10;25.60;42.80
75648;DHT22;66269;51.466;7.260;2023-02-14T16:52:36;25.50;42.80
75648;DHT22;66269;51.466;7.260;2023-02-14T16:55:03;25.50;42.90
75648;DHT22;66269;51.466;7.260;2023-02-14T16:57:32;25.50;42.70
75648;DHT22;66269;51.466;7.260;2023-02-14T16:59:58;25.50;43.00
75648;DHT22;66269;51.466;7.260;2023-02-14T17:02:24;25.40;42.80
75648;DHT22;66269;51.466;7.260;2023-02-14T17:04:52;25.40;42.90
75648;DHT22;66269;51.466;7.260;2023-02-14T17:07:18;25.40;42.80
75648;DHT22;66269;51.466;7.260;2023-02-14T17:09:47;25.40;42.90
75648;DHT22;66269;51.466;7.260;2023-02-14T17:12:17;25.40;42.80
75648;DHT22;66269;51.466;7.260;2023-02-14T17:14:48;25.40;42.80
75648;DHT22;66269;51.466;7.260;2023-02-14T17:17:16;25.30;43.00
75648;DHT22;66269;51.466;7.260;2023-02-14T17:19:41;25.40;42.80
75648;DHT22;66269;51.466;7.260;2023-02-14T17:22:07;25.30;42.80
75648;DHT22;66269;51.466;7.260;2023-02-14T17:24:33;25.30;43.00
75648;DHT22;66269;51.466;7.260;2023-02-14T17:26:58;25.30;42.70
75648;DHT22;66269;51.466;7.260;2023-02-14T17:29:24;25.30;42.90
75648;DHT22;66269;51.466;7.260;2023-02-14T17:31:50;25.30;42.50
75648;DHT22;66269;51.466;7.260;2023-02-14T17:34:15;25.30;42.90
75648;DHT22;66269;51.466;7.260;2023-02-14T17:36:41;25.20;42.70
75648;DHT22;66269;51.466;7.260;2023-02-14T17:39:06;25.20;42.70
75648;DHT22;66269;51.466;7.260;2023-02-14T17:41:32;25.20;42.90
75648;DHT22;66269;51.466;7.260;2023-02-14T17:43:58;25.30;42.80